Time;durP1;ratioP1;P1;durP2;ratioP2;P2;SDS_P1;SDS_P2;PMS_P1;PMS_P2;Temp;Humidity;BMP_temperature;BMP_pressure;BME280_temperature;BME280_humidity;BME280_pressure;Samples;Min_cycle;Max_cycle;Signal;HPM_P1;HPM_P2
2021/07/02 00:01:38;;;;;;;8.05;6.20;;;;;;;22.21;100.00;100268.52;1815077;77;21335;-63
2021/07/02 00:04:06;;;;;;;7.47;5.87;;;;;;;22.19;100.00;100275.46;1812144;77;21473;-63
2021/07/02 00:06:32;;;;;;;8.40;6.22;;;;;;;22.18;100.00;100285.53;1816356;77;21482;-63
2021/07/02 00:08:59;;;;;;;13.15;7.05;;;;;;;22.18;100.00;100285.53;1815466;77;21631;-61
2021/07/02 00:11:26;;;;;;;8.28;5.85;;;;;;;22.16;100.00;100293.50;1814561;77;21446;-62
2021/07/02 00:13:52;;;;;;;10.28;6.35;;;;;;;22.14;100.00;100292.78;1814741;77;21490;-62
2021/07/02 00:16:19;;;;;;;9.63;6.40;;;;;;;22.12;100.00;100284.75;1768206;79;21270;-63
2021/07/02 00:18:46;;;;;;;9.95;6.80;;;;;;;22.11;100.00;100281.66;1733484;82;21695;-63
2021/07/02 00:21:14;;;;;;;8.28;6.47;;;;;;;22.12;100.00;100277.05;1811355;77;21423;-64
2021/07/02 00:23:40;;;;;;;7.87;6.20;;;;;;;22.13;100.00;100269.22;1815539;77;21568;-63
2021/07/02 00:26:07;;;;;;;9.55;6.65;;;;;;;22.15;100.00;100261.74;1818478;77;21623;-62
2021/07/02 00:28:34;;;;;;;9.68;7.08;;;;;;;22.15;100.00;100248.09;1820295;77;20978;-63
2021/07/02 00:31:01;;;;;;;8.23;6.65;;;;;;;22.18;100.00;100236.89;1822355;77;21384;-64
2021/07/02 00:33:27;;;;;;;9.28;6.72;;;;;;;22.20;100.00;100221.22;1827348;77;20920;-62
2021/07/02 00:35:54;;;;;;;9.40;6.15;;;;;;;22.21;100.00;100224.83;1821994;77;22181;-64
2021/07/02 00:38:21;;;;;;;9.70;6.58;;;;;;;22.20;100.00;100230.78;1817379;77;20983;-63
2021/07/02 00:40:47;;;;;;;12.15;5.90;;;;;;;22.20;100.00;100233.51;1822351;77;21460;-63
2021/07/02 00:43:14;;;;;;;9.40;5.90;;;;;;;22.21;100.00;100225.67;1821561;77;20912;-63
2021/07/02 00:45:41;;;;;;;10.53;5.70;;;;;;;22.22;100.00;100234.26;1823029;77;21418;-62
2021/07/02 00:48:08;;;;;;;7.80;5.70;;;;;;;22.20;100.00;100233.51;1817573;77;20980;-63
2021/07/02 00:50:35;;;;;;;9.60;6.35;;;;;;;22.18;100.00;100234.16;1824265;77;21085;-65
2021/07/02 00:53:04;;;;;;;10.20;6.22;;;;;;;22.16;100.00;100235.68;1769907;79;21031;-65
2021/07/02 00:55:31;;;;;;;8.48;6.10;;;;;;;22.14;100.00;100229.50;1814662;77;21003;-62
2021/07/02 00:57:59;;;;;;;8.60;5.62;;;;;;;22.12;100.00;100225.18;1819987;77;21496;-61
2021/07/02 01:00:27;;;;;;;7.37;5.47;;;;;;;22.09;100.00;100211.81;1820275;77;22194;-62
2021/07/02 01:02:54;;;;;;;8.10;6.37;;;;;;;22.08;100.00;100206.00;1819380;77;21661;-63
2021/07/02 01:05:21;;;;;;;9.93;6.22;;;;;;;22.09;100.00;100196.80;1825115;77;21422;-63
2021/07/02 01:07:48;;;;;;;6.97;6.00;;;;;;;22.13;100.00;100191.41;1822303;77;21495;-62
2021/07/02 01:10:18;;;;;;;11.53;6.47;;;;;;;22.15;100.00;100189.41;1822335;77;21787;-61
2021/07/02 01:12:47;;;;;;;9.65;6.17;;;;;;;22.16;100.00;100187.03;1827422;77;21219;-63
2021/07/02 01:15:26;;;;;;;10.23;6.35;;;;;;;22.17;100.00;100201.04;1785379;78;20936;-61
2021/07/02 01:17:54;;;;;;;10.08;5.33;;;;;;;22.18;100.00;100195.45;1759919;79;21561;-63
2021/07/02 01:20:23;;;;;;;12.25;6.12;;;;;;;22.18;100.00;100200.03;1764811;79;20960;-63
2021/07/02 01:22:49;;;;;;;9.70;6.00;;;;;;;22.16;100.00;100200.19;1821900;77;21014;-62
2021/07/02 01:25:16;;;;;;;9.43;6.03;;;;;;;22.16;100.00;100205.66;1823542;77;21062;-66
2021/07/02 01:27:44;;;;;;;9.45;6.30;;;;;;;22.14;100.00;100212.25;1823152;77;20999;-62
2021/07/02 01:30:12;;;;;;;8.58;5.90;;;;;;;22.11;100.00;100212.53;1774927;77;21522;-64
2021/07/02 01:32:39;;;;;;;8.95;6.40;;;;;;;22.08;100.00;100210.09;1818704;77;21527;-62
2021/07/02 01:35:07;;;;;;;7.40;6.45;;;;;;;22.07;100.00;100216.56;1816640;77;20891;-62
2021/07/02 01:37:35;;;;;;;9.63;6.67;;;;;;;22.07;100.00;100207.01;1826092;77;21316;-62
2021/07/02 01:40:06;;;;;;;12.25;6.40;;;;;;;22.08;100.00;100210.09;1815686;77;20987;-65
2021/07/02 01:42:33;;;;;;;9.53;6.92;;;;;;;22.09;100.00;100214.03;1782211;78;20898;-62
2021/07/02 01:45:01;;;;;;;13.70;6.62;;;;;;;22.08;100.00;100212.83;1829424;77;21015;-62
2021/07/02 01:47:27;;;;;;;16.87;6.40;;;;;;;22.07;100.00;100209.73;1825116;77;21905;-64
2021/07/02 01:49:56;;;;;;;18.15;6.10;;;;;;;22.04;100.00;100209.02;1813733;77;21058;-63
2021/07/02 01:52:24;;;;;;;28.30;5.85;;;;;;;22.04;100.00;100199.47;1817445;77;21036;-62
2021/07/02 01:54:51;;;;;;;26.87;5.50;;;;;;;22.02;100.00;100193.29;1815912;77;21008;-61
2021/07/02 01:57:23;;;;;;;17.62;5.65;;;;;;;21.99;100.00;100182.63;1824504;77;21035;-61
2021/07/02 01:59:50;;;;;;;13.90;5.37;;;;;;;21.93;100.00;100173.66;1784394;77;20999;-62
2021/07/02 02:02:18;;;;;;;37.58;4.50;;;;;;;21.89;100.00;100176.31;1817973;77;22432;-62
2021/07/02 02:04:47;;;;;;;33.23;4.20;;;;;;;21.83;100.00;100168.19;1824159;77;20875;-63
2021/07/02 02:07:14;;;;;;;23.35;4.03;;;;;;;21.77;100.00;100167.88;1786567;78;20946;-62
2021/07/02 02:09:45;;;;;;;62.73;4.50;;;;;;;21.72;100.00;100168.33;1820021;77;20995;-62
2021/07/02 02:12:13;;;;;;;45.08;4.35;;;;;;;21.65;100.00;100169.88;1818846;77;20960;-62
2021/07/02 02:14:43;;;;;;;58.83;5.45;;;;;;;21.60;100.00;100168.91;1816407;77;21828;-61
2021/07/02 02:17:12;;;;;;;35.10;4.55;;;;;;;21.55;100.00;100169.81;1818909;77;20940;-63
2021/07/02 02:19:39;;;;;;;51.05;5.65;;;;;;;21.52;100.00;100174.19;1822489;77;21022;-61
2021/07/02 02:22:07;;;;;;;43.33;6.00;;;;;;;21.50;100.00;100168.02;1820181;77;20916;-61
2021/07/02 02:24:35;;;;;;;48.83;6.15;;;;;;;21.52;100.00;100160.55;1815441;77;21409;-62
2021/07/02 02:27:02;;;;;;;20.27;6.25;;;;;;;21.53;100.00;100156.82;1804037;78;21637;-62
2021/07/02 02:29:29;;;;;;;33.25;6.87;;;;;;;21.56;100.00;100148.39;1816184;76;20906;-59
2021/07/02 02:31:56;;;;;;;11.40;7.12;;;;;;;21.59;100.00;100156.28;1799027;78;21035;-59
2021/07/02 02:34:23;;;;;;;19.60;6.58;;;;;;;21.59;100.00;100160.38;1799950;78;21593;-59
2021/07/02 02:36:51;;;;;;;25.43;6.62;;;;;;;21.60;100.00;100158.01;1795537;78;20968;-59
2021/07/02 02:39:18;;;;;;;16.32;6.83;;;;;;;21.63;100.00;100156.84;1801287;78;21093;-61
2021/07/02 02:41:45;;;;;;;19.17;7.40;;;;;;;21.66;100.00;100167.02;1795418;78;20913;-61
2021/07/02 02:44:12;;;;;;;12.90;6.78;;;;;;;21.71;100.00;100161.14;1813334;78;21052;-60
2021/07/02 02:46:40;;;;;;;16.73;6.80;;;;;;;21.78;100.00;100162.30;1796309;78;22821;-60
2021/07/02 02:49:07;;;;;;;17.32;7.78;;;;;;;21.85;100.00;100158.51;1800132;78;22108;-60
2021/07/02 02:51:34;;;;;;;10.53;7.90;;;;;;;21.90;100.00;100150.75;1799040;78;21391;-60
2021/07/02 02:54:00;;;;;;;12.68;7.50;;;;;;;21.96;100.00;100143.34;1798074;78;21499;-60
2021/07/02 02:56:27;;;;;;;9.65;7.42;;;;;;;22.03;100.00;100140.43;1800361;78;20966;-61
2021/07/02 02:58:54;;;;;;;11.48;7.92;;;;;;;22.10;100.00;100147.52;1798026;78;20985;-60
2021/07/02 03:01:22;;;;;;;10.20;7.30;;;;;;;22.19;100.00;100147.16;1799990;78;20944;-60
2021/07/02 03:03:50;;;;;;;10.10;7.08;;;;;;;22.29;100.00;100156.22;1805106;78;21092;-60
2021/07/02 03:06:17;;;;;;;10.88;7.80;;;;;;;22.40;100.00;100161.16;1802114;78;21005;-60
2021/07/02 03:08:44;;;;;;;10.63;7.40;;;;;;;22.48;100.00;100161.34;1796683;78;20909;-60
2021/07/02 03:11:12;;;;;;;10.75;7.40;;;;;;;22.56;100.00;100171.02;1801309;78;21406;-60
2021/07/02 03:13:39;;;;;;;9.13;7.17;;;;;;;22.65;100.00;100176.59;1800403;78;21505;-62
2021/07/02 03:16:07;;;;;;;8.23;7.05;;;;;;;22.76;100.00;100181.91;1763232;78;21522;-60
2021/07/02 03:18:38;;;;;;;10.23;6.90;;;;;;;22.83;100.00;100187.13;1800508;78;20941;-63
2021/07/02 03:21:05;;;;;;;9.60;6.70;;;;;;;22.91;100.00;100192.39;1779308;79;21021;-62
2021/07/02 03:23:32;;;;;;;8.93;7.65;;;;;;;23.00;100.00;100188.75;1805473;78;20972;-61
2021/07/02 03:26:00;;;;;;;11.08;7.35;;;;;;;23.12;100.00;100186.20;1833913;75;20955;-62
2021/07/02 03:28:27;;;;;;;10.28;7.10;;;;;;;23.28;100.00;100184.72;1818297;77;21751;-62
2021/07/02 03:30:55;;;;;;;13.30;6.60;;;;;;;23.45;100.00;100196.23;1822020;77;20999;-62
2021/07/02 03:33:22;;;;;;;12.90;7.00;;;;;;;23.63;100.00;100198.16;1826353;77;20970;-63
2021/07/02 03:35:49;;;;;;;8.68;5.92;;;;;;;23.84;100.00;100190.19;1823778;77;21091;-62
2021/07/02 03:38:16;;;;;;;10.70;5.97;;;;;;;24.05;100.00;100194.55;1781103;77;21512;-62
2021/07/02 03:40:43;;;;;;;10.45;6.40;;;;;;;24.23;100.00;100205.00;1827626;77;21508;-62
2021/07/02 03:43:10;;;;;;;10.53;6.03;;;;;;;24.42;100.00;100212.67;1817678;77;20841;-62
2021/07/02 03:45:37;;;;;;;10.82;6.60;;;;;;;24.57;100.00;100212.47;1817202;77;21105;-62
2021/07/02 03:48:06;;;;;;;11.63;5.80;;;;;;;24.70;100.00;100218.06;1819663;77;20932;-62
2021/07/02 03:50:34;;;;;;;10.95;6.05;;;;;;;24.76;100.00;100207.86;1813706;77;20924;-61
2021/07/02 03:53:03;;;;;;;9.65;5.42;;;;;;;24.81;100.00;100212.34;1823039;77;20969;-62
2021/07/02 03:55:30;;;;;;;11.93;5.62;;;;;;;24.86;100.00;100211.34;1817188;77;21478;-62
2021/07/02 03:57:57;;;;;;;14.13;5.97;;;;;;;24.89;100.00;100207.43;1823127;77;21424;-62
2021/07/02 04:00:23;;;;;;;9.73;5.67;;;;;;;24.93;100.00;100212.09;1820751;77;20943;-62
2021/07/02 04:02:51;;;;;;;10.80;5.42;;;;;;;24.89;100.00;100205.56;1782697;78;20965;-62
2021/07/02 04:05:18;;;;;;;11.18;5.47;;;;;;;24.88;100.00;100201.11;1822403;77;21918;-61
2021/07/02 04:07:44;;;;;;;17.92;5.12;;;;;;;24.84;100.00;100206.53;1823478;77;20900;-62
2021/07/02 04:10:11;;;;;;;19.75;4.78;;;;;;;24.80;100.00;100208.41;1815718;77;20932;-62
2021/07/02 04:12:37;;;;;;;18.87;4.53;;;;;;;24.73;100.00;100213.63;1825147;77;20915;-62
2021/07/02 04:15:06;;;;;;;8.53;4.45;;;;;;;24.67;100.00;100212.38;1820331;77;21034;-62
2021/07/02 04:17:37;;;;;;;12.25;5.10;;;;;;;24.63;100.00;100233.40;1821608;77;21449;-62
2021/07/02 04:20:05;;;;;;;14.05;4.97;;;;;;;24.57;100.00;100230.28;1818736;77;20944;-62
2021/07/02 04:22:31;;;;;;;10.75;5.65;;;;;;;24.54;100.00;100225.65;1819016;77;21083;-63
2021/07/02 04:24:57;;;;;;;11.83;5.80;;;;;;;24.53;100.00;100209.70;1821864;77;20995;-63
2021/07/02 04:27:24;;;;;;;10.75;5.15;;;;;;;24.56;100.00;100216.23;1785303;78;21138;-63
2021/07/02 04:29:50;;;;;;;10.63;5.45;;;;;;;24.62;100.00;100217.48;1786318;78;21517;-63
2021/07/02 04:32:17;;;;;;;10.23;5.92;;;;;;;24.66;100.00;100213.92;1791451;78;21018;-62
2021/07/02 04:34:43;;;;;;;9.95;5.83;;;;;;;24.71;100.00;100229.38;1789407;78;20915;-62
2021/07/02 04:37:10;;;;;;;10.00;6.30;;;;;;;24.76;100.00;100242.12;1791054;78;20940;-62
2021/07/02 04:39:36;;;;;;;9.78;5.75;;;;;;;24.79;100.00;100242.33;1789236;79;20928;-62
2021/07/02 04:42:05;;;;;;;13.22;7.47;;;;;;;24.85;100.00;100238.41;1794295;78;21111;-63
2021/07/02 04:44:35;;;;;;;11.55;7.72;;;;;;;24.94;100.00;100228.89;1775671;79;21050;-62
2021/07/02 04:47:03;;;;;;;10.08;7.47;;;;;;;24.99;100.00;100227.39;1790965;79;21427;-62
2021/07/02 04:49:33;;;;;;;7.17;6.17;;;;;;;25.10;100.00;100232.25;1782466;79;20923;-63
2021/07/02 04:52:00;;;;;;;13.32;5.80;;;;;;;25.22;100.00;100231.45;1792795;78;21153;-62
2021/07/02 04:54:27;;;;;;;15.25;6.15;;;;;;;25.36;100.00;100224.50;1790918;78;22383;-61
2021/07/02 04:56:55;;;;;;;15.23;5.50;;;;;;;25.51;100.00;100219.28;1788234;78;20964;-61
2021/07/02 04:59:27;;;;;;;15.68;5.05;;;;;;;25.62;100.00;100203.91;1794384;78;20986;-61
2021/07/02 05:01:50;;;;;;;10.60;5.40;;;;;;;25.69;98.32;100180.78;1789446;78;20971;-62
2021/07/02 05:04:17;;;;;;;8.28;5.15;;;;;;;25.62;96.80;100161.36;1791884;79;21376;-63
2021/07/02 05:06:44;;;;;;;8.23;6.42;;;;;;;25.48;96.14;100166.98;1792826;78;21074;-61
2021/07/02 05:09:12;;;;;;;9.20;6.22;;;;;;;25.29;95.73;100170.80;1794415;78;21027;-61
2021/07/02 05:11:39;;;;;;;7.20;5.75;;;;;;;25.07;96.67;100171.72;1793362;79;21504;-61
2021/07/02 05:14:07;;;;;;;11.43;6.70;;;;;;;24.85;96.82;100171.25;1790445;79;20995;-62
2021/07/02 05:16:35;;;;;;;14.80;6.50;;;;;;;24.60;98.01;100154.60;1787105;78;20934;-62
2021/07/02 05:19:02;;;;;;;14.07;6.67;;;;;;;24.39;99.39;100140.41;1794925;78;21042;-61
2021/07/02 05:21:28;;;;;;;8.43;5.45;;;;;;;24.24;100.00;100134.14;1793217;78;20947;-62
2021/07/02 05:23:55;;;;;;;6.85;5.28;;;;;;;24.11;100.00;100126.83;1794507;78;20929;-63
2021/07/02 05:26:21;;;;;;;13.43;5.08;;;;;;;24.01;100.00;100117.30;1804750;77;21003;-63
2021/07/02 05:28:50;;;;;;;8.55;4.35;;;;;;;23.95;100.00;100129.73;1814867;77;21480;-61
2021/07/02 05:31:17;;;;;;;5.55;4.15;;;;;;;23.92;100.00;100128.67;1817833;77;21054;-61
2021/07/02 05:33:45;;;;;;;6.33;4.17;;;;;;;23.87;100.00;100133.77;1814496;77;21371;-63
2021/07/02 05:36:12;;;;;;;7.60;4.00;;;;;;;23.89;100.00;100134.46;1813024;77;21027;-62
2021/07/02 05:38:38;;;;;;;4.95;4.20;;;;;;;23.92;100.00;100138.78;1772800;79;21063;-59
2021/07/02 05:41:05;;;;;;;5.17;3.98;;;;;;;23.95;100.00;100144.78;1775127;79;21507;-62
2021/07/02 05:43:32;;;;;;;6.95;4.85;;;;;;;23.98;100.00;100160.89;1771752;79;21778;-61
2021/07/02 05:45:58;;;;;;;9.13;4.78;;;;;;;24.00;100.00;100171.70;1765870;79;20940;-62
2021/07/02 05:48:25;;;;;;;7.00;4.92;;;;;;;24.06;100.00;100174.36;1765037;79;20992;-61
2021/07/02 05:50:52;;;;;;;8.80;5.35;;;;;;;24.07;100.00;100170.61;1814922;77;20944;-61
2021/07/02 05:53:18;;;;;;;8.68;4.78;;;;;;;24.12;100.00;100180.57;1814369;77;21018;-62
2021/07/02 05:55:45;;;;;;;13.15;5.03;;;;;;;24.23;100.00;100178.98;1812758;77;21097;-62
2021/07/02 05:58:13;;;;;;;9.73;5.00;;;;;;;24.37;100.00;100178.05;1806832;77;20948;-61
2021/07/02 06:00:40;;;;;;;8.83;4.72;;;;;;;24.53;100.00;100191.02;1766419;79;20912;-61
2021/07/02 06:03:07;;;;;;;9.90;4.72;;;;;;;24.69;100.00;100207.59;1724169;81;21499;-62
2021/07/02 06:05:36;;;;;;;11.22;4.35;;;;;;;24.85;100.00;100216.47;1770464;79;21064;-62
2021/07/02 06:08:04;;;;;;;12.93;4.90;;;;;;;25.02;100.00;100215.22;1768244;79;21828;-62
2021/07/02 06:10:31;;;;;;;12.13;4.17;;;;;;;25.20;100.00;100215.68;1771983;79;20996;-61
2021/07/02 06:12:58;;;;;;;10.30;4.67;;;;;;;25.40;100.00;100218.53;1767736;79;20933;-61
2021/07/02 06:15:27;;;;;;;7.30;4.47;;;;;;;25.68;99.56;100216.95;1727971;80;21016;-63
2021/07/02 06:17:54;;;;;;;6.40;3.67;;;;;;;25.90;98.04;100222.86;1750605;80;21350;-61
2021/07/02 06:20:25;;;;;;;5.33;3.83;;;;;;;26.08;95.93;100224.63;1745379;80;21420;-62
2021/07/02 06:22:51;;;;;;;8.73;3.98;;;;;;;26.26;94.87;100230.87;1743239;80;22181;-63
2021/07/02 06:25:18;;;;;;;8.83;4.00;;;;;;;26.53;93.46;100228.84;1814049;77;21813;-61
2021/07/02 06:27:44;;;;;;;12.47;3.80;;;;;;;26.82;90.86;100228.81;1821691;77;22330;-63
2021/07/02 06:30:13;;;;;;;6.25;3.60;;;;;;;27.07;88.18;100228.80;1820956;77;20939;-62
2021/07/02 06:32:40;;;;;;;8.35;3.55;;;;;;;27.28;85.92;100232.39;1820608;77;21276;-63
2021/07/02 06:35:08;;;;;;;8.35;3.62;;;;;;;27.55;84.35;100234.39;1818103;77;20887;-62
2021/07/02 06:37:35;;;;;;;6.70;3.80;;;;;;;27.86;82.88;100242.34;1818841;77;21489;-61
2021/07/02 06:40:03;;;;;;;7.83;3.15;;;;;;;28.15;80.90;100249.05;1786648;77;21007;-62
2021/07/02 06:42:30;;;;;;;6.28;3.70;;;;;;;28.38;78.55;100246.87;1817804;77;20982;-63
2021/07/02 06:44:58;;;;;;;8.35;4.22;;;;;;;28.47;76.56;100249.92;1775006;79;22270;-62
2021/07/02 06:47:25;;;;;;;7.30;3.87;;;;;;;28.53;75.94;100245.03;1819109;77;21456;-62
2021/07/02 06:49:52;;;;;;;8.50;3.75;;;;;;;28.58;74.95;100245.34;1816001;77;21046;-64
2021/07/02 06:52:18;;;;;;;7.87;3.70;;;;;;;28.67;74.40;100234.26;1822649;77;21559;-63
2021/07/02 06:54:45;;;;;;;6.15;3.52;;;;;;;28.72;72.85;100229.03;1817134;77;21167;-63
2021/07/02 06:57:14;;;;;;;5.28;3.65;;;;;;;28.70;72.39;100231.13;1819868;77;20996;-61
2021/07/02 06:59:41;;;;;;;8.30;3.50;;;;;;;28.63;72.51;100233.76;1819283;77;20987;-63
2021/07/02 07:02:12;;;;;;;5.75;3.67;;;;;;;28.51;72.63;100225.07;1819075;77;20955;-64
2021/07/02 07:04:42;;;;;;;9.80;3.83;;;;;;;28.45;73.58;100240.98;1813171;77;20995;-65
2021/07/02 07:07:09;;;;;;;8.43;3.90;;;;;;;28.42;74.12;100238.59;1813784;77;21825;-64
2021/07/02 07:09:38;;;;;;;6.50;3.83;;;;;;;28.39;75.04;100229.28;1818954;77;21776;-63
2021/07/02 07:12:07;;;;;;;6.37;3.90;;;;;;;28.39;75.15;100232.05;1823825;77;20984;-63
2021/07/02 07:14:34;;;;;;;6.47;3.62;;;;;;;28.34;75.46;100233.13;1813802;77;20999;-64
2021/07/02 07:17:04;;;;;;;7.22;4.20;;;;;;;28.25;75.66;100233.70;1817387;77;21054;-63
2021/07/02 07:19:31;;;;;;;6.70;4.00;;;;;;;28.13;76.22;100237.36;1817832;77;20990;-65
2021/07/02 07:21:58;;;;;;;7.50;4.47;;;;;;;28.02;76.83;100237.25;1819285;77;21086;-59
2021/07/02 07:24:25;;;;;;;7.05;4.60;;;;;;;27.90;77.47;100243.69;1820815;77;20960;-61
2021/07/02 07:26:52;;;;;;;6.17;3.90;;;;;;;27.79;78.45;100238.59;1820904;77;21097;-64
2021/07/02 07:29:19;;;;;;;9.38;4.08;;;;;;;27.66;79.02;100233.14;1782175;78;21063;-64
2021/07/02 07:31:45;;;;;;;6.65;4.25;;;;;;;27.57;79.32;100242.48;1744285;80;20990;-63
2021/07/02 07:34:14;;;;;;;8.55;3.75;;;;;;;27.45;80.07;100237.31;1818179;77;21512;-63
2021/07/02 07:36:41;;;;;;;8.45;4.40;;;;;;;27.36;80.60;100226.00;1816351;77;21535;-63
2021/07/02 07:39:10;;;;;;;8.78;4.67;;;;;;;27.29;81.02;100221.72;1818754;77;22124;-63
2021/07/02 07:41:37;;;;;;;11.35;4.78;;;;;;;27.28;81.44;100224.63;1821840;77;20932;-63
2021/07/02 07:44:05;;;;;;;8.78;4.22;;;;;;;27.29;81.44;100229.09;1817175;77;21532;-64
2021/07/02 07:46:35;;;;;;;11.03;4.50;;;;;;;27.29;81.62;100229.97;1765328;77;21496;-64
2021/07/02 07:49:03;;;;;;;5.75;4.00;;;;;;;27.33;81.80;100233.74;1790323;78;21015;-61
2021/07/02 07:51:56;;;;;;;5.47;3.55;;;;;;;27.36;81.82;100243.02;1819162;77;20997;-62
2021/07/02 07:54:31;;;;;;;8.28;4.55;;;;;;;27.38;81.76;100244.57;1782927;77;20969;-62
2021/07/02 07:56:58;;;;;;;10.10;4.47;;;;;;;27.40;81.63;100248.00;1817561;77;21045;-62
2021/07/02 07:59:29;;;;;;;10.30;5.80;;;;;;;27.39;81.64;100249.03;1817374;77;21060;-61
2021/07/02 08:01:56;;;;;;;11.83;4.67;;;;;;;27.37;81.52;100244.23;1817922;77;21031;-66
2021/07/02 08:04:23;;;;;;;8.73;4.53;;;;;;;27.32;81.60;100237.03;1819953;77;21210;-60
2021/07/02 08:06:51;;;;;;;9.33;4.50;;;;;;;27.29;81.67;100231.85;1811863;77;20998;-64
2021/07/02 08:09:19;;;;;;;6.17;4.37;;;;;;;27.26;81.88;100225.33;1813943;77;20913;-61
2021/07/02 08:12:05;;;;;;;5.50;4.10;;;;;;;27.25;82.04;100219.48;1821585;77;21542;-60
2021/07/02 08:14:39;;;;;;;12.07;4.83;;;;;;;27.19;81.98;100216.07;1818533;77;21060;-61
2021/07/02 08:17:07;;;;;;;7.80;3.98;;;;;;;27.13;82.48;100208.00;1818508;77;21114;-61
2021/07/02 08:19:35;;;;;;;7.42;4.15;;;;;;;27.09;82.45;100203.39;1819013;77;21078;-64
2021/07/02 08:22:04;;;;;;;7.70;3.80;;;;;;;27.06;82.75;100200.95;1822932;77;21174;-62
2021/07/02 08:24:31;;;;;;;6.87;3.80;;;;;;;27.02;82.76;100199.09;1826932;77;21871;-62
2021/07/02 08:26:58;;;;;;;10.23;3.98;;;;;;;26.98;82.60;100194.11;1804329;77;21075;-62
2021/07/02 08:29:29;;;;;;;8.43;4.12;;;;;;;26.99;81.95;100188.95;1775124;79;20988;-62
2021/07/02 08:31:56;;;;;;;8.70;5.90;;;;;;;27.04;81.46;100201.66;1775672;78;20981;-62
2021/07/02 08:34:22;;;;;;;7.50;4.22;;;;;;;27.06;81.62;100203.71;1775218;78;21382;-63
2021/07/02 08:36:52;;;;;;;12.13;4.10;;;;;;;27.07;80.59;100208.71;1778254;78;21058;-63
2021/07/02 08:39:19;;;;;;;9.78;3.98;;;;;;;27.06;79.78;100209.21;1776619;79;21395;-62
2021/07/02 08:41:48;;;;;;;10.72;4.10;;;;;;;27.02;80.20;100211.98;1776786;78;21513;-62
2021/07/02 08:44:15;;;;;;;6.92;4.17;;;;;;;27.02;80.07;100216.98;1779209;78;20982;-63
2021/07/02 08:46:42;;;;;;;8.20;3.83;;;;;;;27.02;80.15;100211.98;1758173;79;21055;-63
2021/07/02 08:49:09;;;;;;;11.63;3.85;;;;;;;27.05;80.38;100210.25;1778907;79;21062;-63
2021/07/02 08:51:36;;;;;;;6.30;4.08;;;;;;;27.07;80.17;100202.67;1782616;78;20913;-63
2021/07/02 08:54:03;;;;;;;5.35;3.50;;;;;;;27.12;80.29;100203.03;1781477;79;21012;-60
2021/07/02 08:56:29;;;;;;;5.70;3.70;;;;;;;27.15;79.99;100200.42;1777036;79;21059;-61
2021/07/02 08:58:57;;;;;;;5.62;3.40;;;;;;;27.19;78.83;100200.94;1782496;78;20905;-62
2021/07/02 09:01:43;;;;;;;7.37;3.85;;;;;;;27.24;78.36;100202.13;1776145;78;21122;-64
2021/07/02 09:04:34;;;;;;;6.37;3.80;;;;;;;27.29;78.25;100207.09;1774008;79;21403;-64
2021/07/02 09:07:12;;;;;;;9.03;4.03;;;;;;;27.39;77.84;100202.25;1777477;79;20874;-61
2021/07/02 09:10:00;;;;;;;6.85;4.05;;;;;;;27.54;77.39;100202.92;1783369;79;21048;-62
2021/07/02 09:13:12;;;;;;;15.35;4.65;;;;;;;27.61;76.78;100202.54;1779311;78;20956;-63
2021/07/02 09:15:46;;;;;;;7.60;3.62;;;;;;;27.65;76.46;100199.75;1704973;80;22111;-63
2021/07/02 09:18:13;;;;;;;7.62;4.10;;;;;;;27.63;76.13;100203.21;1697075;82;21029;-63
2021/07/02 09:20:42;;;;;;;14.18;4.62;;;;;;;27.64;77.01;100203.55;1699497;82;21177;-64
2021/07/02 09:23:12;;;;;;;10.65;4.78;;;;;;;27.61;77.60;100199.78;1695654;82;21141;-63
2021/07/02 09:25:53;;;;;;;8.48;4.03;;;;;;;27.58;77.93;100197.39;1709311;82;21458;-57
2021/07/02 09:28:24;;;;;;;6.47;4.37;;;;;;;27.50;78.41;100199.63;1748528;79;21115;-58
2021/07/02 09:30:52;;;;;;;10.32;4.40;;;;;;;27.46;79.02;100202.41;1755072;79;21584;-58
2021/07/02 09:33:25;;;;;;;7.33;3.85;;;;;;;27.42;79.39;100210.14;1726775;80;21552;-59
2021/07/02 09:36:00;;;;;;;4.53;4.08;;;;;;;27.36;79.71;100213.63;1756130;79;21895;-59
2021/07/02 09:38:36;;;;;;;7.10;4.78;;;;;;;27.34;79.95;100206.06;1782444;78;21522;-59
2021/07/02 09:41:03;;;;;;;6.55;4.25;;;;;;;27.35;80.33;100202.77;1737742;80;21808;-59
2021/07/02 09:43:32;;;;;;;7.47;4.87;;;;;;;27.33;80.48;100196.09;1752508;80;21409;-59
2021/07/02 09:46:03;;;;;;;9.08;3.92;;;;;;;27.34;80.35;100196.93;1771616;78;21679;-59
2021/07/02 09:48:32;;;;;;;7.78;4.20;;;;;;;27.34;80.23;100192.80;1775365;79;20980;-59
2021/07/02 09:51:10;;;;;;;12.50;4.00;;;;;;;27.34;80.46;100189.55;1779644;78;21072;-58
2021/07/02 09:53:35;;;;;;;9.55;4.30;;;;;;;27.36;80.49;100187.98;1743872;80;22329;-59
2021/07/02 09:56:05;;;;;;;7.33;3.87;;;;;;;27.36;80.48;100185.22;1742076;80;20908;-62
2021/07/02 09:58:39;;;;;;;9.30;4.03;;;;;;;27.37;80.59;100185.06;1728608;80;21094;-59
2021/07/02 10:01:07;;;;;;;7.17;3.60;;;;;;;27.41;80.47;100185.54;1742449;80;22290;-60
2021/07/02 10:03:41;;;;;;;8.30;3.83;;;;;;;27.48;80.19;100181.56;1736713;81;20948;-59
2021/07/02 10:06:14;;;;;;;7.33;3.85;;;;;;;27.55;79.93;100177.11;1738419;80;21095;-60
2021/07/02 10:08:42;;;;;;;6.65;3.77;;;;;;;27.64;79.56;100175.17;1738740;80;20881;-60
2021/07/02 10:11:10;;;;;;;8.18;3.58;;;;;;;27.80;79.08;100172.84;1735649;80;21396;-63
2021/07/02 10:13:43;;;;;;;6.33;4.30;;;;;;;27.94;78.25;100172.05;1773644;78;21466;-62
2021/07/02 10:16:13;;;;;;;5.20;3.75;;;;;;;28.10;77.75;100167.47;1754638;80;21033;-63
2021/07/02 10:18:50;;;;;;;6.22;4.05;;;;;;;28.21;77.08;100167.09;1734840;80;20877;-63
2021/07/02 10:21:19;;;;;;;7.17;3.70;;;;;;;28.30;76.59;100165.97;1739431;80;20892;-63
2021/07/02 10:23:49;;;;;;;6.05;3.40;;;;;;;28.35;75.69;100164.55;1735505;81;21001;-62
2021/07/02 10:26:16;;;;;;;4.95;3.40;;;;;;;28.40;75.31;100168.98;1756072;80;21060;-62
2021/07/02 10:28:44;;;;;;;10.32;3.70;;;;;;;28.41;75.13;100176.23;1733111;79;21329;-63
2021/07/02 10:31:11;;;;;;;4.58;3.37;;;;;;;28.43;75.15;100178.28;1701950;82;21159;-62
2021/07/02 10:33:52;;;;;;;8.88;3.60;;;;;;;28.46;74.91;100175.16;1774669;79;21461;-62
2021/07/02 10:36:20;;;;;;;7.22;3.70;;;;;;;28.45;74.78;100170.68;1771400;79;21012;-63
2021/07/02 10:38:51;;;;;;;7.83;3.55;;;;;;;28.48;74.65;100172.19;1776429;78;21039;-63
2021/07/02 10:41:22;;;;;;;8.93;3.80;;;;;;;28.45;74.53;100179.80;1775378;79;21566;-64
2021/07/02 10:44:11;;;;;;;7.90;3.47;;;;;;;28.43;74.81;100172.77;1773125;79;21958;-63
2021/07/02 10:46:41;;;;;;;6.80;3.45;;;;;;;28.43;74.62;100170.02;1774938;79;20996;-62
2021/07/02 10:49:11;;;;;;;7.50;3.87;;;;;;;28.39;74.57;100171.41;1774982;78;21157;-62
2021/07/02 10:51:54;;;;;;;5.25;3.70;;;;;;;28.37;74.93;100170.23;1775349;78;20921;-62
2021/07/02 10:54:28;;;;;;;6.53;3.50;;;;;;;28.39;75.17;100165.38;1757610;79;21462;-62
2021/07/02 10:57:05;;;;;;;6.08;3.65;;;;;;;28.43;75.02;100163.13;1774145;79;21428;-62
2021/07/02 10:59:44;;;;;;;7.87;3.80;;;;;;;28.52;75.08;100166.13;1773492;79;21450;-59
2021/07/02 11:02:21;;;;;;;3.45;2.80;;;;;;;28.63;74.40;100163.95;1774013;79;21391;-63
2021/07/02 11:04:58;;;;;;;8.20;3.40;;;;;;;28.68;74.03;100168.41;1779969;78;21056;-64
2021/07/02 11:07:30;;;;;;;6.05;3.52;;;;;;;28.69;74.04;100161.84;1771493;79;20960;-62
2021/07/02 11:10:02;;;;;;;4.78;3.37;;;;;;;28.75;73.65;100161.09;1730739;80;21602;-60
2021/07/02 11:12:42;;;;;;;7.37;3.77;;;;;;;28.80;73.41;100162.78;1728697;80;21500;-61
2021/07/02 11:15:16;;;;;;;10.45;3.83;;;;;;;28.83;72.98;100165.16;1726157;81;21504;-67
2021/07/02 11:17:52;;;;;;;5.70;3.60;;;;;;;28.86;72.97;100164.81;1771033;79;21044;-60
2021/07/02 11:20:24;;;;;;;10.35;3.77;;;;;;;28.91;72.61;100171.12;1774145;78;20984;-60
2021/07/02 11:23:13;;;;;;;6.22;3.37;;;;;;;28.94;71.93;100182.31;1775346;78;21654;-64
2021/07/02 11:25:54;;;;;;;9.18;3.40;;;;;;;28.98;71.48;100178.12;1775117;78;21612;-61